createdAt,value
2018-10-11T00:00:13.803Z,97721.00
2018-10-11T00:04:16.136Z,97726.00
2018-10-11T00:08:18.441Z,97722.00
2018-10-11T00:12:21.007Z,97717.00
2018-10-11T00:16:23.367Z,97727.00
2018-10-11T00:20:25.863Z,97723.00
2018-10-11T00:24:28.268Z,97734.00
2018-10-11T00:28:30.582Z,97737.00
2018-10-11T00:32:34.768Z,97728.00
2018-10-11T00:36:37.066Z,97736.00
2018-10-11T00:40:40.927Z,97725.00
2018-10-11T00:44:44.447Z,97729.00
2018-10-11T00:48:46.746Z,97732.00
2018-10-11T00:52:49.089Z,97718.00
2018-10-11T00:56:51.346Z,97723.00
2018-10-11T01:00:53.612Z,97726.00
2018-10-11T01:04:55.916Z,97714.00
2018-10-11T01:08:58.235Z,97704.00
2018-10-11T01:13:00.587Z,97702.00
2018-10-11T01:17:03.906Z,97698.00
2018-10-11T01:21:15.660Z,97700.00
2018-10-11T01:25:21.298Z,97691.00
2018-10-11T01:29:23.657Z,97685.00
2018-10-11T01:33:26.116Z,97684.00
2018-10-11T01:37:28.413Z,97671.00
2018-10-11T01:41:30.796Z,97669.00
2018-10-11T01:45:33.849Z,97661.00
2018-10-11T01:49:36.562Z,97653.00
2018-10-11T01:53:39.033Z,97662.00
2018-10-11T01:57:41.431Z,97667.00
2018-10-11T02:01:43.711Z,97665.00
2018-10-11T02:05:46.036Z,97664.00
2018-10-11T02:09:48.342Z,97657.00
2018-10-11T02:13:50.722Z,97649.00
2018-10-11T02:17:53.123Z,97639.00
2018-10-11T02:21:55.433Z,97624.00
2018-10-11T02:25:57.708Z,97627.00
2018-10-11T02:30:00.048Z,97632.00
2018-10-11T02:34:02.471Z,97613.00
2018-10-11T02:38:04.826Z,97618.00
2018-10-11T02:42:07.240Z,97619.00
2018-10-11T02:46:09.646Z,97619.00
2018-10-11T02:50:12.027Z,97626.00
2018-10-11T02:54:14.433Z,97619.00
2018-10-11T02:58:28.261Z,97612.00
2018-10-11T03:02:31.135Z,97623.00
2018-10-11T03:06:34.794Z,97621.00
2018-10-11T03:10:37.222Z,97617.00
2018-10-11T03:14:39.606Z,97620.00
2018-10-11T03:18:42.021Z,97619.00
2018-10-11T03:22:44.370Z,97631.00
2018-10-11T03:26:46.765Z,97640.00
2018-10-11T03:30:49.112Z,97629.00
2018-10-11T03:34:51.443Z,97626.00
2018-10-11T03:38:53.796Z,97637.00
2018-10-11T03:42:56.734Z,97631.00
2018-10-11T03:46:59.081Z,97627.00
2018-10-11T03:51:01.389Z,97623.00
2018-10-11T03:55:03.752Z,97619.00
2018-10-11T03:59:06.427Z,97624.00
2018-10-11T04:03:08.732Z,97624.00
2018-10-11T04:07:11.080Z,97624.00
2018-10-11T04:11:13.346Z,97616.00
2018-10-11T04:15:15.692Z,97626.00
2018-10-11T04:19:18.071Z,97630.00
2018-10-11T04:23:27.552Z,97636.00
2018-10-11T04:27:29.910Z,97637.00
2018-10-11T04:31:32.356Z,97621.00
2018-10-11T04:35:34.674Z,97634.00
2018-10-11T04:39:37.123Z,97623.00
2018-10-11T04:43:39.424Z,97635.00
2018-10-11T04:47:41.810Z,97623.00
2018-10-11T04:51:44.245Z,97618.00
2018-10-11T04:55:46.592Z,97625.00
2018-10-11T04:59:48.925Z,97633.00
2018-10-11T05:03:51.300Z,97620.00
2018-10-11T05:07:53.628Z,97628.00
2018-10-11T05:11:55.950Z,97630.00
2018-10-11T05:15:58.300Z,97628.00
2018-10-11T05:20:00.689Z,97641.00
2018-10-11T05:24:03.066Z,97638.00
2018-10-11T05:28:05.435Z,97643.00
2018-10-11T05:32:07.846Z,97648.00
2018-10-11T05:36:10.305Z,97647.00
2018-10-11T05:40:12.689Z,97645.00
2018-10-11T05:44:15.119Z,97651.00
2018-10-11T05:48:17.456Z,97651.00
2018-10-11T05:52:19.803Z,97652.00
2018-10-11T05:56:23.474Z,97649.00
2018-10-11T06:00:25.815Z,97668.00
2018-10-11T06:04:28.224Z,97655.00
2018-10-11T06:08:30.585Z,97664.00
2018-10-11T06:12:32.948Z,97670.00
2018-10-11T06:16:35.295Z,97672.00
2018-10-11T06:20:37.695Z,97669.00
2018-10-11T06:24:40.055Z,97679.00
2018-10-11T06:28:42.973Z,97690.00
2018-10-11T06:32:45.442Z,97684.00
2018-10-11T06:36:47.875Z,97686.00
2018-10-11T06:40:50.371Z,97681.00
2018-10-11T06:44:53.474Z,97678.00
2018-10-11T06:48:55.896Z,97671.00
2018-10-11T06:52:58.552Z,97670.00
2018-10-11T06:57:00.910Z,97668.00
2018-10-11T07:01:03.306Z,97680.00
2018-10-11T07:05:05.724Z,97706.00
2018-10-11T07:09:08.383Z,97709.00
2018-10-11T07:13:10.756Z,97712.00
2018-10-11T07:17:13.114Z,97717.00
2018-10-11T07:21:15.524Z,97723.00
2018-10-11T07:25:17.898Z,97716.00
2018-10-11T07:29:20.306Z,97726.00
2018-10-11T07:33:22.618Z,97744.00
2018-10-11T07:37:24.990Z,97758.00
2018-10-11T07:41:27.415Z,97773.00
2018-10-11T07:45:29.761Z,97780.00
2018-10-11T07:49:32.150Z,97789.00
2018-10-11T07:53:34.526Z,97791.00
2018-10-11T07:57:36.869Z,97781.00
2018-10-11T08:01:39.380Z,97780.00
2018-10-11T08:05:41.649Z,97782.00
2018-10-11T08:09:43.959Z,97793.00
2018-10-11T08:13:46.328Z,97784.00
2018-10-11T08:17:48.956Z,97787.00
2018-10-11T08:21:51.019Z,97799.00
2018-10-11T08:25:53.561Z,97801.00
2018-10-11T08:29:55.845Z,97818.00
2018-10-11T08:33:58.158Z,97807.00
2018-10-11T08:38:00.672Z,97811.00
2018-10-11T08:42:02.872Z,97802.00
2018-10-11T08:46:05.473Z,97802.00
2018-10-11T08:50:07.910Z,97796.00
2018-10-11T08:54:16.015Z,97799.00
2018-10-11T08:58:18.463Z,97792.00
2018-10-11T09:02:20.750Z,97797.00
2018-10-11T09:06:23.166Z,97808.00
2018-10-11T09:10:37.861Z,97810.00
2018-10-11T09:14:28.014Z,97794.00
2018-10-11T09:18:30.380Z,97806.00
2018-10-11T09:22:32.759Z,97809.00
2018-10-11T09:26:35.102Z,97802.00
2018-10-11T09:30:37.489Z,97799.00
2018-10-11T09:34:41.268Z,97801.00
2018-10-11T09:38:43.640Z,97804.00
2018-10-11T09:42:46.041Z,97800.00
2018-10-11T09:46:48.418Z,97791.00
2018-10-11T09:50:50.784Z,97799.00
2018-10-11T09:54:53.268Z,97808.00
2018-10-11T09:58:55.650Z,97817.00
2018-10-11T10:02:58.289Z,97817.00
2018-10-11T10:07:00.734Z,97810.00
2018-10-11T10:11:03.128Z,97823.00
2018-10-11T10:15:05.657Z,97821.00
2018-10-11T10:19:08.107Z,97816.00
2018-10-11T10:23:10.493Z,97810.00
2018-10-11T10:27:13.007Z,97817.00
2018-10-11T10:31:15.302Z,97811.00
2018-10-11T10:35:17.666Z,97813.00
2018-10-11T10:39:20.248Z,97757.00
2018-10-11T10:43:22.612Z,97807.00
2018-10-11T10:47:24.957Z,97810.00
2018-10-11T10:51:27.309Z,97812.00
2018-10-11T10:55:29.663Z,97793.00
2018-10-11T10:59:32.184Z,97794.00
2018-10-11T11:03:34.537Z,97785.00
2018-10-11T11:07:36.927Z,97786.00
2018-10-11T11:11:39.637Z,97784.00
2018-10-11T11:15:42.000Z,97788.00
2018-10-11T11:19:44.354Z,97771.00
2018-10-11T11:23:46.753Z,97774.00
2018-10-11T11:27:49.322Z,97776.00
2018-10-11T11:31:51.653Z,97769.00
2018-10-11T11:35:54.004Z,97770.00
2018-10-11T11:39:56.376Z,97770.00
2018-10-11T11:43:58.659Z,97768.00
2018-10-11T11:48:01.106Z,97759.00
2018-10-11T11:52:03.525Z,97765.00
2018-10-11T11:56:05.969Z,97769.00
2018-10-11T12:00:08.379Z,97767.00
2018-10-11T12:04:10.738Z,97787.00
2018-10-11T12:08:13.133Z,97778.00
2018-10-11T12:13:23.589Z,97783.00
2018-10-11T12:17:25.943Z,97776.00
2018-10-11T12:21:28.304Z,97783.00
2018-10-11T12:25:31.151Z,97788.00
2018-10-11T12:29:37.091Z,97779.00
2018-10-11T12:33:39.517Z,97765.00
2018-10-11T12:37:41.973Z,97780.00
2018-10-11T12:41:44.298Z,97781.00
2018-10-11T12:45:46.801Z,97773.00
2018-10-11T12:49:49.486Z,97782.00
2018-10-11T12:53:52.416Z,97776.00
2018-10-11T12:57:54.863Z,97785.00
2018-10-11T13:01:57.576Z,97788.00
2018-10-11T13:06:00.074Z,97799.00
2018-10-11T13:10:03.023Z,97800.00
2018-10-11T13:14:05.558Z,97804.00
2018-10-11T13:18:08.209Z,97795.00
2018-10-11T13:22:10.604Z,97798.00
2018-10-11T13:26:13.076Z,97802.00
2018-10-11T13:30:15.428Z,97812.00
2018-10-11T13:34:18.013Z,97812.00
2018-10-11T13:38:20.427Z,97812.00
2018-10-11T13:42:22.849Z,97809.00
2018-10-11T13:46:25.430Z,97813.00
2018-10-11T13:50:27.762Z,97815.00
2018-10-11T13:54:30.666Z,97821.00
2018-10-11T13:58:33.072Z,97829.00
2018-10-11T14:02:35.983Z,97830.00
2018-10-11T14:06:38.632Z,97818.00
2018-10-11T14:10:41.331Z,97815.00
2018-10-11T14:14:43.762Z,97819.00
2018-10-11T14:18:46.366Z,97811.00
2018-10-11T14:22:48.690Z,97812.00
2018-10-11T14:26:51.507Z,97805.00
2018-10-11T14:30:53.821Z,97805.00
2018-10-11T14:34:56.212Z,97799.00
2018-10-11T14:39:00.791Z,97799.00
2018-10-11T14:43:03.689Z,97797.00
2018-10-11T14:47:06.119Z,97801.00
2018-10-11T14:51:09.134Z,97819.00
2018-10-11T14:55:11.476Z,97828.00
2018-10-11T14:59:13.854Z,97810.00
2018-10-11T15:03:16.301Z,97814.00
2018-10-11T15:07:18.899Z,97811.00
2018-10-11T15:11:21.983Z,97802.00
2018-10-11T15:15:24.529Z,97806.00
2018-10-11T15:19:27.142Z,97811.00
2018-10-11T15:23:29.659Z,97795.00
2018-10-11T15:27:32.355Z,97817.00
2018-10-11T15:31:34.785Z,97810.00
2018-10-11T15:35:37.196Z,97812.00
2018-10-11T15:39:39.681Z,97801.00
2018-10-11T15:43:42.091Z,97815.00
2018-10-11T15:47:44.471Z,97807.00
2018-10-11T15:51:46.864Z,97788.00
2018-10-11T15:55:49.235Z,97782.00
2018-10-11T15:59:51.791Z,97793.00
2018-10-11T16:03:54.310Z,97793.00
2018-10-11T16:07:56.640Z,97793.00
2018-10-11T16:11:59.201Z,97788.00
2018-10-11T16:16:01.514Z,97794.00
2018-10-11T16:20:04.152Z,97806.00
2018-10-11T16:24:06.550Z,97808.00
2018-10-11T16:28:08.939Z,97813.00
2018-10-11T16:32:11.416Z,97816.00
2018-10-11T16:36:13.759Z,97821.00
2018-10-11T16:40:16.251Z,97817.00
2018-10-11T16:44:18.617Z,97830.00
2018-10-11T16:48:21.024Z,97826.00
2018-10-11T16:52:23.386Z,97832.00
2018-10-11T16:56:25.713Z,97840.00
2018-10-11T17:00:28.093Z,97823.00
2018-10-11T17:04:30.497Z,97832.00
2018-10-11T17:08:32.904Z,97835.00
2018-10-11T17:12:35.310Z,97833.00
2018-10-11T17:16:37.683Z,97842.00
2018-10-11T17:20:40.044Z,97843.00
2018-10-11T17:24:42.416Z,97839.00
2018-10-11T17:28:44.845Z,97846.00
2018-10-11T17:32:47.359Z,97848.00
2018-10-11T17:36:49.780Z,97850.00
2018-10-11T17:40:52.246Z,97859.00
2018-10-11T17:44:54.776Z,97865.00
2018-10-11T17:48:57.246Z,97872.00
2018-10-11T17:52:59.685Z,97875.00
2018-10-11T17:57:02.061Z,97877.00
2018-10-11T18:01:04.470Z,97880.00
2018-10-11T18:05:06.958Z,97873.00
2018-10-11T18:09:10.285Z,97874.00
2018-10-11T18:13:12.656Z,97873.00
2018-10-11T18:17:15.022Z,97875.00
2018-10-11T18:21:17.485Z,97877.00
2018-10-11T18:25:19.783Z,97884.00
2018-10-11T18:29:22.255Z,97889.00
2018-10-11T18:33:24.613Z,97886.00
2018-10-11T18:37:26.966Z,97883.00
2018-10-11T18:41:29.319Z,97879.00
2018-10-11T18:45:31.682Z,97880.00
2018-10-11T18:49:34.024Z,97885.00
2018-10-11T18:53:36.613Z,97892.00
2018-10-11T18:57:39.041Z,97895.00
2018-10-11T19:01:41.740Z,97903.00
2018-10-11T19:05:44.319Z,97897.00
2018-10-11T19:09:46.662Z,97900.00
2018-10-11T19:13:49.021Z,97896.00
2018-10-11T19:17:51.362Z,97901.00
2018-10-11T19:21:53.807Z,97897.00
2018-10-11T19:25:56.255Z,97895.00
2018-10-11T19:29:58.597Z,97903.00
2018-10-11T19:34:00.984Z,97913.00
2018-10-11T19:38:03.368Z,97907.00
2018-10-11T19:42:05.731Z,97903.00
2018-10-11T19:46:08.370Z,97901.00
2018-10-11T19:50:10.749Z,97903.00
2018-10-11T19:54:13.819Z,97896.00
2018-10-11T19:58:16.295Z,97883.00
2018-10-11T20:02:18.803Z,97891.00
2018-10-11T20:06:21.255Z,97889.00
2018-10-11T20:10:23.688Z,97889.00
2018-10-11T20:14:25.995Z,97890.00
2018-10-11T20:18:28.373Z,97891.00
2018-10-11T20:22:30.715Z,97884.00
2018-10-11T20:26:33.084Z,97890.00
2018-10-11T20:30:35.547Z,97894.00
2018-10-11T20:34:37.906Z,97902.00
2018-10-11T20:38:40.261Z,97910.00
2018-10-11T20:42:42.618Z,97912.00
2018-10-11T20:46:44.980Z,97924.00
2018-10-11T20:50:47.378Z,97922.00
2018-10-11T20:54:49.727Z,97922.00
2018-10-11T20:58:52.073Z,97929.00
2018-10-11T21:02:54.455Z,97928.00
2018-10-11T21:06:56.839Z,97936.00
2018-10-11T21:10:59.182Z,97938.00
2018-10-11T21:15:01.544Z,97935.00
2018-10-11T21:19:04.008Z,97932.00
2018-10-11T21:23:06.420Z,97938.00
2018-10-11T21:27:08.807Z,97938.00
2018-10-11T21:31:11.183Z,97938.00
2018-10-11T21:35:13.545Z,97943.00
2018-10-11T21:39:15.862Z,97946.00
2018-10-11T21:43:18.153Z,97949.00
2018-10-11T21:47:20.524Z,97953.00
2018-10-11T21:51:22.872Z,97942.00
2018-10-11T21:55:25.395Z,97942.00
2018-10-11T21:59:27.742Z,97936.00
2018-10-11T22:03:30.076Z,97945.00
2018-10-11T22:07:32.504Z,97947.00
2018-10-11T22:11:34.926Z,97949.00
2018-10-11T22:15:37.336Z,97939.00
2018-10-11T22:19:39.774Z,97952.00
2018-10-11T22:23:42.848Z,97950.00
2018-10-11T22:27:45.696Z,97944.00
2018-10-11T22:31:57.582Z,97942.00
2018-10-11T22:36:01.017Z,97951.00
2018-10-11T22:40:03.699Z,97946.00
2018-10-11T22:44:07.074Z,97933.00
2018-10-11T22:48:10.014Z,97943.00
2018-10-11T22:52:12.781Z,97942.00
2018-10-11T22:56:19.875Z,97960.00
2018-10-11T23:00:22.608Z,97952.00
2018-10-11T23:04:25.202Z,97971.00
2018-10-11T23:08:27.587Z,97971.00
2018-10-11T23:12:30.107Z,97963.00
2018-10-11T23:16:32.590Z,97971.00
2018-10-11T23:20:34.930Z,97976.00
2018-10-11T23:24:37.258Z,97967.00
2018-10-11T23:28:40.106Z,97972.00
2018-10-11T23:32:42.566Z,97969.00
2018-10-11T23:36:44.882Z,97977.00
2018-10-11T23:40:47.211Z,97980.00
2018-10-11T23:44:49.577Z,97991.00
2018-10-11T23:48:51.870Z,97991.00
2018-10-11T23:52:54.231Z,97996.00
2018-10-11T23:56:56.525Z,97996.00
